createdAt,value
2023-01-30T00:01:31.567Z,89.60
2023-01-30T00:03:59.084Z,89.50
2023-01-30T00:06:26.741Z,89.70
2023-01-30T00:08:54.466Z,89.70
2023-01-30T00:11:22.423Z,89.70
2023-01-30T00:13:51.266Z,89.70
2023-01-30T00:16:18.825Z,89.90
2023-01-30T00:18:46.653Z,89.70
2023-01-30T00:21:15.409Z,89.80
2023-01-30T00:23:43.553Z,89.50
2023-01-30T00:26:12.008Z,89.50
2023-01-30T00:28:40.359Z,89.50
2023-01-30T00:31:08.597Z,89.30
2023-01-30T00:33:38.248Z,90.20
2023-01-30T00:36:06.031Z,90.00
2023-01-30T00:38:33.544Z,89.10
2023-01-30T00:41:00.897Z,89.20
2023-01-30T00:43:46.806Z,90.00
2023-01-30T00:46:51.892Z,89.80
2023-01-30T00:49:20.169Z,89.70
2023-01-30T00:51:47.700Z,89.80
2023-01-30T00:54:15.109Z,89.70
2023-01-30T00:56:42.497Z,89.20
2023-01-30T00:59:09.759Z,89.30
2023-01-30T01:01:37.970Z,89.40
2023-01-30T01:04:06.870Z,89.40
2023-01-30T01:06:34.317Z,89.20
2023-01-30T01:09:02.280Z,89.40
2023-01-30T01:11:30.719Z,89.70
2023-01-30T01:14:00.697Z,89.70
2023-01-30T01:16:30.932Z,89.60
2023-01-30T01:18:59.313Z,89.60
2023-01-30T01:21:26.651Z,89.40
2023-01-30T01:23:57.207Z,89.70
2023-01-30T01:26:24.795Z,89.40
2023-01-30T01:28:56.602Z,89.80
2023-01-30T01:31:24.535Z,90.00
2023-01-30T01:33:52.227Z,89.20
2023-01-30T01:36:42.473Z,88.80
2023-01-30T01:39:07.144Z,88.90
2023-01-30T01:41:34.526Z,89.10
2023-01-30T01:44:12.711Z,89.60
2023-01-30T01:46:58.518Z,88.90
2023-01-30T01:49:32.447Z,88.60
2023-01-30T01:52:14.357Z,88.60
2023-01-30T01:54:59.659Z,88.50
2023-01-30T01:57:34.298Z,88.50
2023-01-30T02:00:12.142Z,88.20
2023-01-30T02:02:47.771Z,88.40
2023-01-30T02:05:17.392Z,88.20
2023-01-30T02:07:54.927Z,87.90
2023-01-30T02:10:50.993Z,88.60
2023-01-30T02:13:18.957Z,87.70
2023-01-30T02:15:48.299Z,87.70
2023-01-30T02:18:16.155Z,87.60
2023-01-30T02:20:49.534Z,87.70
2023-01-30T02:23:32.143Z,87.50
2023-01-30T02:26:36.549Z,87.60
2023-01-30T02:29:34.601Z,87.50
2023-01-30T02:32:33.229Z,87.50
2023-01-30T02:35:17.957Z,87.30
2023-01-30T02:38:16.461Z,87.20
2023-01-30T02:40:58.925Z,87.30
2023-01-30T02:43:34.264Z,87.30
2023-01-30T02:46:13.647Z,87.40
2023-01-30T02:49:14.067Z,87.20
2023-01-30T02:51:43.810Z,87.30
2023-01-30T02:54:12.801Z,87.20
2023-01-30T02:56:57.014Z,87.20
2023-01-30T02:59:33.384Z,87.10
2023-01-30T03:02:05.381Z,87.00
2023-01-30T03:05:08.609Z,86.90
2023-01-30T03:07:54.185Z,86.80
2023-01-30T03:10:46.886Z,86.90
2023-01-30T03:13:37.199Z,86.60
2023-01-30T03:16:18.090Z,86.50
2023-01-30T03:18:46.438Z,86.40
2023-01-30T03:21:17.117Z,86.50
2023-01-30T03:23:47.957Z,86.40
2023-01-30T03:26:22.365Z,86.40
2023-01-30T03:28:51.520Z,86.30
2023-01-30T03:31:19.428Z,86.30
2023-01-30T03:33:47.064Z,86.30
2023-01-30T03:36:14.701Z,86.30
2023-01-30T03:38:42.423Z,86.30
2023-01-30T03:41:10.034Z,86.10
2023-01-30T03:43:38.760Z,86.30
2023-01-30T03:46:06.764Z,87.00
2023-01-30T03:48:34.304Z,86.60
2023-01-30T03:51:01.646Z,86.70
2023-01-30T03:53:29.869Z,87.10
2023-01-30T03:55:57.298Z,87.10
2023-01-30T03:58:29.616Z,87.20
2023-01-30T04:00:58.541Z,87.30
2023-01-30T04:03:26.616Z,87.40
2023-01-30T04:05:58.028Z,87.20
2023-01-30T04:08:26.253Z,87.00
2023-01-30T04:10:53.704Z,87.00
2023-01-30T04:13:21.511Z,87.00
2023-01-30T04:15:48.921Z,86.90
2023-01-30T04:18:22.114Z,86.80
2023-01-30T04:20:58.346Z,86.80
2023-01-30T04:23:32.779Z,86.70
2023-01-30T04:26:00.205Z,86.60
2023-01-30T04:28:28.136Z,86.50
2023-01-30T04:30:55.644Z,86.40
2023-01-30T04:33:49.111Z,86.40
2023-01-30T04:36:16.688Z,86.20
2023-01-30T04:38:45.455Z,86.00
2023-01-30T04:41:13.448Z,86.00
2023-01-30T04:43:43.009Z,85.90
2023-01-30T04:46:28.872Z,85.90
2023-01-30T04:48:57.327Z,85.70
2023-01-30T04:51:26.634Z,85.10
2023-01-30T04:53:54.283Z,85.10
2023-01-30T04:56:21.675Z,85.10
2023-01-30T04:58:50.419Z,85.00
2023-01-30T05:01:33.334Z,84.90
2023-01-30T05:04:01.171Z,84.70
2023-01-30T05:06:29.207Z,84.60
2023-01-30T05:08:57.475Z,84.50
2023-01-30T05:11:26.178Z,84.40
2023-01-30T05:13:54.181Z,84.10
2023-01-30T05:16:22.847Z,84.10
2023-01-30T05:18:50.907Z,84.00
2023-01-30T05:21:19.617Z,83.80
2023-01-30T05:23:47.347Z,83.80
2023-01-30T05:26:15.683Z,83.70
2023-01-30T05:28:43.521Z,83.50
2023-01-30T05:31:13.100Z,83.90
2023-01-30T05:33:41.491Z,84.00
2023-01-30T05:36:15.755Z,84.30
2023-01-30T05:38:44.148Z,84.40
2023-01-30T05:41:13.091Z,84.60
2023-01-30T05:43:40.703Z,84.70
2023-01-30T05:46:10.890Z,85.00
2023-01-30T05:48:38.473Z,85.70
2023-01-30T05:51:06.144Z,86.00
2023-01-30T05:53:35.152Z,86.20
2023-01-30T05:56:04.804Z,86.20
2023-01-30T05:58:33.191Z,86.00
2023-01-30T06:01:06.540Z,85.80
2023-01-30T06:03:33.962Z,86.30
2023-01-30T06:06:06.000Z,86.40
2023-01-30T06:08:33.694Z,86.70
2023-01-30T06:11:02.714Z,86.80
2023-01-30T06:13:30.172Z,87.40
2023-01-30T06:15:57.907Z,88.00
2023-01-30T06:18:25.461Z,88.10
2023-01-30T06:20:54.005Z,88.20
2023-01-30T06:23:23.544Z,89.10
2023-01-30T06:25:52.217Z,88.80
2023-01-30T06:28:20.223Z,89.70
2023-01-30T06:30:47.915Z,89.40
2023-01-30T06:33:15.345Z,89.40
2023-01-30T06:35:44.020Z,89.40
2023-01-30T06:38:13.372Z,90.20
2023-01-30T06:40:41.918Z,89.00
2023-01-30T06:43:09.322Z,88.10
2023-01-30T06:45:36.716Z,88.40
2023-01-30T06:48:04.395Z,87.80
2023-01-30T06:50:32.376Z,88.70
2023-01-30T06:53:03.515Z,87.80
2023-01-30T06:55:37.001Z,87.20
2023-01-30T06:58:13.319Z,87.00
2023-01-30T07:00:42.395Z,86.90
2023-01-30T07:03:15.017Z,86.30
2023-01-30T07:05:43.911Z,86.10
2023-01-30T07:08:11.820Z,86.90
2023-01-30T07:10:40.205Z,86.90
2023-01-30T07:13:07.567Z,86.10
2023-01-30T07:15:35.061Z,85.70
2023-01-30T07:18:02.682Z,85.50
2023-01-30T07:20:31.314Z,85.10
2023-01-30T07:22:58.725Z,85.20
2023-01-30T07:25:27.714Z,85.00
2023-01-30T07:28:02.379Z,85.00
2023-01-30T07:30:32.238Z,84.80
2023-01-30T07:33:00.643Z,84.70
2023-01-30T07:35:30.633Z,84.50
2023-01-30T07:37:58.395Z,84.40
2023-01-30T07:40:26.673Z,84.20
2023-01-30T07:43:06.055Z,84.10
2023-01-30T07:45:45.282Z,84.10
2023-01-30T07:48:15.139Z,83.80
2023-01-30T07:50:43.271Z,83.60
2023-01-30T07:53:13.275Z,83.60
2023-01-30T07:55:40.818Z,83.30
2023-01-30T07:58:08.516Z,83.10
2023-01-30T08:00:36.981Z,83.10
2023-01-30T08:03:04.336Z,83.00
2023-01-30T08:05:32.182Z,83.10
2023-01-30T08:08:00.937Z,83.10
2023-01-30T08:10:28.393Z,82.70
2023-01-30T08:12:55.736Z,82.80
2023-01-30T08:15:23.258Z,82.60
2023-01-30T08:17:55.384Z,82.50
2023-01-30T08:20:22.907Z,82.30
2023-01-30T08:22:50.339Z,82.20
2023-01-30T08:25:17.850Z,81.80
2023-01-30T08:27:45.195Z,81.70
2023-01-30T08:30:13.321Z,81.20
2023-01-30T08:32:40.680Z,80.90
2023-01-30T08:35:09.063Z,80.10
2023-01-30T08:37:36.832Z,78.80
2023-01-30T08:40:04.502Z,79.00
2023-01-30T08:42:31.863Z,77.60
2023-01-30T08:44:59.227Z,77.10
2023-01-30T08:47:26.666Z,76.90
2023-01-30T08:49:54.105Z,76.50
2023-01-30T08:52:21.455Z,76.30
2023-01-30T08:54:48.770Z,75.80
2023-01-30T08:57:16.262Z,75.70
2023-01-30T08:59:43.538Z,75.90
2023-01-30T09:02:12.314Z,75.50
2023-01-30T09:04:39.687Z,75.50
2023-01-30T09:07:07.004Z,74.70
2023-01-30T09:09:34.410Z,74.80
2023-01-30T09:12:01.796Z,73.80
2023-01-30T09:14:29.171Z,74.40
2023-01-30T09:16:56.692Z,72.90
2023-01-30T09:19:25.869Z,72.50
2023-01-30T09:21:54.501Z,72.10
2023-01-30T09:24:26.848Z,72.60
2023-01-30T09:26:57.598Z,72.40
2023-01-30T09:29:29.019Z,73.50
2023-01-30T09:31:57.014Z,69.60
2023-01-30T09:34:27.735Z,68.00
2023-01-30T09:36:56.730Z,68.70
2023-01-30T09:39:24.108Z,70.30
2023-01-30T09:42:05.350Z,72.80
2023-01-30T09:44:43.726Z,75.00
2023-01-30T09:47:14.715Z,75.50
2023-01-30T09:50:32.192Z,77.00
2023-01-30T09:53:14.777Z,78.90
2023-01-30T09:55:42.981Z,78.70
2023-01-30T09:58:24.542Z,80.50
2023-01-30T10:01:03.787Z,80.70
2023-01-30T10:03:38.469Z,80.20
2023-01-30T10:06:11.057Z,80.10
2023-01-30T10:08:56.536Z,80.40
2023-01-30T10:11:55.601Z,80.50
2023-01-30T10:14:46.491Z,80.80
2023-01-30T10:17:41.975Z,80.80
2023-01-30T10:20:29.744Z,81.00
2023-01-30T10:23:12.149Z,81.10
2023-01-30T10:25:49.469Z,81.30
2023-01-30T10:28:21.266Z,81.10
2023-01-30T10:30:49.634Z,82.10
2023-01-30T10:33:33.778Z,82.00
2023-01-30T10:36:12.698Z,81.20
2023-01-30T10:38:52.112Z,81.10
2023-01-30T10:41:34.860Z,81.10
2023-01-30T10:44:15.135Z,80.90
2023-01-30T10:46:46.739Z,80.80
2023-01-30T10:49:25.167Z,80.50
2023-01-30T10:52:25.027Z,80.10
2023-01-30T10:55:19.934Z,80.30
2023-01-30T10:57:58.424Z,79.90
2023-01-30T11:00:38.697Z,79.90
2023-01-30T11:03:35.273Z,79.80
2023-01-30T11:06:16.959Z,79.70
2023-01-30T11:08:44.459Z,79.50
2023-01-30T11:11:33.001Z,79.50
2023-01-30T11:14:09.008Z,79.50
2023-01-30T11:16:54.337Z,79.50
2023-01-30T11:19:32.188Z,79.40
2023-01-30T11:22:04.891Z,79.40
2023-01-30T11:24:42.989Z,79.30
2023-01-30T11:27:28.863Z,79.40
2023-01-30T11:30:19.492Z,79.40
2023-01-30T11:32:49.619Z,79.30
2023-01-30T11:35:30.767Z,79.20
2023-01-30T11:38:22.643Z,79.20
2023-01-30T11:40:50.392Z,79.30
2023-01-30T11:43:17.716Z,79.20
2023-01-30T11:45:49.538Z,79.50
2023-01-30T11:48:31.670Z,79.60
2023-01-30T11:51:04.531Z,79.50
2023-01-30T11:53:40.218Z,79.60
2023-01-30T11:56:30.475Z,79.70
2023-01-30T11:59:07.458Z,79.90
2023-01-30T12:01:36.997Z,80.00
2023-01-30T12:04:10.821Z,80.00
2023-01-30T12:06:41.008Z,80.00
2023-01-30T12:09:31.479Z,80.20
2023-01-30T12:11:58.807Z,79.80
2023-01-30T12:14:45.765Z,79.80
2023-01-30T12:17:26.354Z,79.90
2023-01-30T12:20:03.954Z,79.90
2023-01-30T12:22:46.432Z,80.10
2023-01-30T12:25:25.620Z,80.00
2023-01-30T12:28:04.725Z,80.00
2023-01-30T12:30:46.145Z,80.10
2023-01-30T12:35:52.222Z,80.20
2023-01-30T12:38:25.107Z,80.20
2023-01-30T12:41:01.382Z,80.90
2023-01-30T12:43:35.495Z,80.20
2023-01-30T12:46:07.272Z,80.20
2023-01-30T12:49:10.369Z,80.30
2023-01-30T12:52:09.378Z,80.40
2023-01-30T12:55:04.834Z,80.40
2023-01-30T12:57:58.084Z,80.50
2023-01-30T13:00:33.802Z,80.50
2023-01-30T13:03:30.530Z,80.60
2023-01-30T13:06:19.667Z,80.60
2023-01-30T13:09:14.464Z,80.70
2023-01-30T13:11:53.151Z,80.80
2023-01-30T13:14:53.312Z,80.80
2023-01-30T13:18:00.016Z,81.00
2023-01-30T13:20:58.563Z,81.00
2023-01-30T13:23:58.501Z,81.10
2023-01-30T13:26:34.866Z,81.10
2023-01-30T13:29:09.721Z,81.10
2023-01-30T13:31:42.435Z,81.40
2023-01-30T13:34:18.052Z,84.00
2023-01-30T13:36:51.436Z,84.00
2023-01-30T13:39:28.569Z,84.10
2023-01-30T13:42:00.268Z,84.10
2023-01-30T13:44:31.546Z,85.00
2023-01-30T13:47:10.806Z,85.20
2023-01-30T13:49:52.648Z,85.10
2023-01-30T13:52:46.068Z,84.20
2023-01-30T13:55:13.460Z,85.10
2023-01-30T13:58:09.554Z,84.90
2023-01-30T14:00:37.243Z,85.40
2023-01-30T14:03:07.541Z,85.40
2023-01-30T14:06:00.678Z,85.70
2023-01-30T14:08:48.572Z,85.30
2023-01-30T14:11:44.778Z,85.30
2023-01-30T14:14:29.397Z,85.00
2023-01-30T14:17:27.884Z,85.40
2023-01-30T14:20:15.173Z,85.40
2023-01-30T14:23:27.530Z,86.30
2023-01-30T14:25:58.505Z,85.60
2023-01-30T14:28:28.584Z,86.00
2023-01-30T14:30:59.129Z,86.10
2023-01-30T14:33:26.577Z,85.50
2023-01-30T14:36:02.960Z,85.50
2023-01-30T14:38:35.104Z,85.90
2023-01-30T14:41:02.407Z,85.90
2023-01-30T14:43:38.827Z,86.20
2023-01-30T14:46:18.198Z,86.60
2023-01-30T14:48:54.445Z,86.80
2023-01-30T14:51:44.304Z,86.90
2023-01-30T14:54:14.781Z,87.00
2023-01-30T14:56:51.217Z,86.70
2023-01-30T14:59:21.615Z,85.50
2023-01-30T15:02:13.622Z,85.00
2023-01-30T15:04:49.137Z,85.20
2023-01-30T15:07:26.183Z,85.10
2023-01-30T15:10:17.702Z,84.70
2023-01-30T15:12:57.016Z,84.80
2023-01-30T15:15:45.067Z,84.40
2023-01-30T15:18:38.643Z,84.30
2023-01-30T15:21:44.912Z,84.20
2023-01-30T15:24:53.344Z,84.10
2023-01-30T15:27:49.468Z,83.80
2023-01-30T15:30:35.664Z,83.70
2023-01-30T15:33:22.941Z,83.80
2023-01-30T15:35:57.006Z,84.30
2023-01-30T15:38:33.662Z,83.40
2023-01-30T15:41:06.559Z,83.50
2023-01-30T15:43:52.385Z,83.30
2023-01-30T15:46:48.252Z,83.30
2023-01-30T15:49:40.107Z,83.30
2023-01-30T15:52:14.659Z,83.00
2023-01-30T15:54:49.985Z,83.00
2023-01-30T15:57:32.531Z,82.80
2023-01-30T16:00:00.552Z,82.80
2023-01-30T16:02:36.322Z,82.60
2023-01-30T16:05:25.608Z,82.60
2023-01-30T16:07:55.484Z,82.60
2023-01-30T16:10:29.111Z,82.30
2023-01-30T16:13:02.371Z,82.30
2023-01-30T16:15:40.084Z,82.30
2023-01-30T16:18:19.316Z,82.20
2023-01-30T16:21:00.476Z,82.20
2023-01-30T16:23:35.807Z,82.00
2023-01-30T16:26:04.825Z,82.20
2023-01-30T16:28:33.034Z,82.20
2023-01-30T16:31:02.785Z,81.60
2023-01-30T16:33:36.632Z,82.00
2023-01-30T16:36:06.802Z,81.60
2023-01-30T16:38:45.533Z,81.70
2023-01-30T16:41:43.261Z,81.60
2023-01-30T16:44:18.240Z,81.50
2023-01-30T16:46:51.890Z,81.90
2023-01-30T16:49:42.779Z,81.60
2023-01-30T16:52:27.991Z,81.60
2023-01-30T16:55:02.534Z,81.40
2023-01-30T16:57:50.342Z,81.70
2023-01-30T17:00:23.101Z,82.10
2023-01-30T17:02:54.616Z,82.30
2023-01-30T17:05:24.835Z,82.20
2023-01-30T17:07:54.093Z,82.90
2023-01-30T17:10:40.210Z,83.40
2023-01-30T17:13:43.374Z,83.30
2023-01-30T17:16:26.049Z,84.40
2023-01-30T17:18:56.109Z,84.70
2023-01-30T17:21:25.643Z,83.90
2023-01-30T17:23:57.869Z,84.60
2023-01-30T17:26:25.471Z,85.10
2023-01-30T17:28:52.941Z,84.70
2023-01-30T17:31:21.144Z,84.80
2023-01-30T17:33:48.631Z,84.80
2023-01-30T17:36:26.253Z,84.40
2023-01-30T17:38:54.292Z,85.50
2023-01-30T17:41:25.560Z,84.70
2023-01-30T17:43:52.899Z,84.90
2023-01-30T17:46:26.648Z,85.30
2023-01-30T17:48:53.996Z,85.40
2023-01-30T17:51:21.322Z,85.40
2023-01-30T17:53:48.629Z,85.60
2023-01-30T17:56:30.108Z,85.60
2023-01-30T17:58:57.473Z,86.70
2023-01-30T18:01:24.972Z,87.00
2023-01-30T18:03:52.425Z,87.00
2023-01-30T18:06:19.764Z,87.60
2023-01-30T18:08:47.198Z,88.00
2023-01-30T18:11:15.898Z,88.40
2023-01-30T18:13:43.267Z,88.60
2023-01-30T18:16:17.545Z,89.80
2023-01-30T18:18:44.948Z,89.90
2023-01-30T18:21:12.475Z,90.30
2023-01-30T18:23:39.809Z,90.80
2023-01-30T18:26:07.164Z,90.10
2023-01-30T18:28:34.553Z,90.10
2023-01-30T18:31:01.979Z,90.80
2023-01-30T18:33:29.458Z,90.70
2023-01-30T18:35:56.705Z,91.50
2023-01-30T18:38:24.028Z,91.10
2023-01-30T18:40:51.367Z,90.90
2023-01-30T18:43:18.703Z,90.50
2023-01-30T18:45:46.110Z,91.80
2023-01-30T18:48:13.415Z,91.80
2023-01-30T18:50:40.840Z,91.40
2023-01-30T18:53:08.513Z,91.40
2023-01-30T18:55:36.292Z,91.10
2023-01-30T18:58:03.684Z,90.70
2023-01-30T19:00:31.084Z,90.50
2023-01-30T19:02:58.741Z,90.90
2023-01-30T19:05:26.157Z,90.00
2023-01-30T19:07:54.415Z,90.00
2023-01-30T19:10:22.157Z,89.90
2023-01-30T19:13:08.083Z,90.00
2023-01-30T19:15:36.050Z,90.00
2023-01-30T19:18:03.420Z,89.70
2023-01-30T19:20:31.154Z,89.70
2023-01-30T19:22:59.839Z,89.40
2023-01-30T19:25:27.371Z,90.20
2023-01-30T19:27:56.623Z,90.00
2023-01-30T19:30:24.118Z,90.50
2023-01-30T19:32:53.464Z,90.00
2023-01-30T19:35:21.028Z,89.50
2023-01-30T19:37:48.511Z,87.70
2023-01-30T19:40:16.087Z,86.70
2023-01-30T19:42:44.691Z,86.40
2023-01-30T19:45:12.484Z,86.90
2023-01-30T19:47:39.896Z,87.10
2023-01-30T19:50:08.036Z,87.30
2023-01-30T19:52:36.504Z,86.60
2023-01-30T19:55:05.490Z,86.10
2023-01-30T19:57:32.787Z,86.40
2023-01-30T20:00:00.032Z,86.50
2023-01-30T20:02:29.366Z,86.30
2023-01-30T20:04:58.245Z,86.00
2023-01-30T20:07:25.716Z,86.60
2023-01-30T20:09:53.083Z,86.90
2023-01-30T20:12:21.923Z,88.00
2023-01-30T20:14:49.270Z,86.40
2023-01-30T20:17:16.603Z,88.10
2023-01-30T20:19:43.900Z,87.90
2023-01-30T20:22:11.320Z,87.10
2023-01-30T20:24:38.740Z,87.80
2023-01-30T20:27:06.097Z,88.30
2023-01-30T20:29:33.474Z,87.90
2023-01-30T20:32:00.900Z,88.30
2023-01-30T20:34:28.412Z,88.20
2023-01-30T20:36:55.696Z,88.50
2023-01-30T20:39:23.393Z,88.10
2023-01-30T20:41:50.811Z,88.20
2023-01-30T20:44:18.253Z,86.90
2023-01-30T20:46:46.948Z,89.70
2023-01-30T20:49:18.566Z,91.50
2023-01-30T20:51:47.452Z,91.90
2023-01-30T20:54:15.332Z,92.50
2023-01-30T20:56:48.313Z,92.80
2023-01-30T20:59:18.658Z,92.80
2023-01-30T21:01:46.773Z,93.30
2023-01-30T21:04:16.256Z,94.00
2023-01-30T21:06:46.436Z,93.90
2023-01-30T21:09:19.963Z,94.40
2023-01-30T21:11:48.350Z,94.70
2023-01-30T21:14:17.007Z,95.20
2023-01-30T21:16:44.855Z,95.30
2023-01-30T21:19:16.602Z,94.90
2023-01-30T21:21:50.830Z,95.20
2023-01-30T21:24:22.091Z,94.70
2023-01-30T21:26:50.233Z,93.80
2023-01-30T21:29:19.443Z,94.20
2023-01-30T21:31:47.025Z,94.30
2023-01-30T21:34:15.115Z,94.30
2023-01-30T21:36:42.604Z,94.50
2023-01-30T21:39:31.919Z,94.80
2023-01-30T21:42:17.862Z,95.10
2023-01-30T21:44:45.223Z,95.30
2023-01-30T21:47:12.626Z,94.20
2023-01-30T21:49:41.634Z,94.60
2023-01-30T21:52:08.957Z,94.90
2023-01-30T21:54:36.557Z,95.20
2023-01-30T21:57:03.996Z,94.10
2023-01-30T21:59:31.974Z,93.60
2023-01-30T22:01:59.394Z,94.40
2023-01-30T22:04:26.703Z,94.60
2023-01-30T22:06:54.430Z,94.80
2023-01-30T22:09:21.889Z,95.00
2023-01-30T22:11:49.371Z,95.10
2023-01-30T22:14:16.754Z,95.30
2023-01-30T22:16:44.191Z,95.30
2023-01-30T22:19:11.895Z,95.20
2023-01-30T22:21:40.559Z,95.50
2023-01-30T22:24:11.248Z,95.30
2023-01-30T22:26:39.577Z,95.30
2023-01-30T22:29:07.336Z,95.60
2023-01-30T22:31:38.403Z,95.20
2023-01-30T22:34:06.423Z,95.10
2023-01-30T22:36:35.100Z,95.20
2023-01-30T22:39:03.950Z,95.20
2023-01-30T22:41:34.822Z,95.20
2023-01-30T22:44:04.092Z,95.30
2023-01-30T22:46:35.200Z,95.30
2023-01-30T22:49:04.546Z,95.30
2023-01-30T22:51:38.421Z,95.20
2023-01-30T22:54:09.463Z,95.20
2023-01-30T22:56:41.613Z,95.30
2023-01-30T22:59:09.574Z,95.30
2023-01-30T23:01:40.013Z,95.40
2023-01-30T23:04:11.857Z,95.40
2023-01-30T23:06:39.321Z,95.30
2023-01-30T23:09:08.087Z,95.30
2023-01-30T23:11:41.925Z,95.60
2023-01-30T23:14:12.077Z,95.60
2023-01-30T23:16:41.648Z,95.60
2023-01-30T23:19:11.091Z,95.50
2023-01-30T23:21:41.427Z,95.70
2023-01-30T23:24:14.848Z,95.70
2023-01-30T23:26:45.750Z,95.80
2023-01-30T23:29:16.230Z,95.70
2023-01-30T23:31:44.821Z,95.70
2023-01-30T23:34:15.140Z,95.70
2023-01-30T23:36:42.984Z,95.70
2023-01-30T23:39:12.018Z,95.70
2023-01-30T23:41:39.989Z,96.00
2023-01-30T23:44:07.354Z,95.50
2023-01-30T23:46:37.748Z,95.60
2023-01-30T23:49:08.059Z,95.60
2023-01-30T23:51:37.539Z,95.20
2023-01-30T23:54:05.665Z,95.20
2023-01-30T23:56:36.292Z,95.30
2023-01-30T23:59:04.739Z,95.40
